Terminal Aerodrome Forecast
Issued by NWS

Home | Current Version | Previous Version | Text Only | Print | Product List | Glossary On
Versions: 1 2 3 4 5 6 7 8 9 10 11 12 13 14 15 16 17 18 19 20 21 22 23 24 25 26 27 28 29 30 31 32 33 34 35 36 37
000
FTUS44 KSJT 170534
TAFJCT
TAF
KJCT 170534Z 1706/1806 VRB03KT P6SM SCT050 BKN250
     FM171100 04009KT P6SM SCT025 BKN040
     FM171700 05010KT P6SM -RA OVC010
     FM171900 04009KT 4SM -RA BR OVC008 PROB30 1719/1724 2SM -TSRA
      OVC004CB
     FM180000 05007KT 3SM -RA BR OVC008=

USA.gov is the U.S. government's official web portal to all federal, state and local government web resources and services.